Terminal Aerodrome Forecast
Issued by NWS Sioux Falls, SD

Home | Current Version | Previous Version | Graphics & Text | Print | Product List | Glossary On
Versions: 1 2 3 4 5 6 7 8 9 10 11 12 13 14 15 16 17 18 19
638
FTUS43 KFSD 251059 AAB
TAFFSD
TAF AMD
KFSD 251059Z 2511/2606 06010KT 4SM BR OVC003
     FM251700 05011KT P6SM OVC008
     FM252200 06011KT P6SM BKN012
     FM260200 06006KT P6SM OVC010=

USA.gov is the U.S. government's official web portal to all federal, state and local government web resources and services.